sensor_id;sensor_type;location;lat;lon;timestamp;P1;durP1;ratioP1;P2;durP2;ratioP2
2750;SDS011;1383;48.362;10.908;2022-07-23T00:00:17;11.03;;;10.13;;
2750;SDS011;1383;48.362;10.908;2022-07-23T00:02:44;11.43;;;10.10;;
2750;SDS011;1383;48.362;10.908;2022-07-23T00:05:11;11.60;;;10.60;;
2750;SDS011;1383;48.362;10.908;2022-07-23T00:07:38;11.03;;;10.10;;
2750;SDS011;1383;48.362;10.908;2022-07-23T00:10:05;12.40;;;11.10;;
2750;SDS011;1383;48.362;10.908;2022-07-23T00:12:33;10.17;;;9.17;;
2750;SDS011;1383;48.362;10.908;2022-07-23T00:15:00;10.67;;;9.67;;
2750;SDS011;1383;48.362;10.908;2022-07-23T00:17:27;10.37;;;9.47;;
2750;SDS011;1383;48.362;10.908;2022-07-23T00:19:53;9.90;;;9.10;;
2750;SDS011;1383;48.362;10.908;2022-07-23T00:22:20;11.00;;;9.93;;
2750;SDS011;1383;48.362;10.908;2022-07-23T00:24:47;10.47;;;9.43;;
2750;SDS011;1383;48.362;10.908;2022-07-23T00:27:34;9.87;;;9.10;;
2750;SDS011;1383;48.362;10.908;2022-07-23T00:30:01;12.97;;;9.43;;
2750;SDS011;1383;48.362;10.908;2022-07-23T00:32:28;9.57;;;8.60;;
2750;SDS011;1383;48.362;10.908;2022-07-23T00:35:15;8.60;;;7.80;;
2750;SDS011;1383;48.362;10.908;2022-07-23T00:37:42;10.33;;;7.93;;
2750;SDS011;1383;48.362;10.908;2022-07-23T00:40:10;7.87;;;7.30;;
2750;SDS011;1383;48.362;10.908;2022-07-23T00:42:39;8.50;;;7.70;;
2750;SDS011;1383;48.362;10.908;2022-07-23T00:45:06;8.87;;;7.33;;
2750;SDS011;1383;48.362;10.908;2022-07-23T00:47:33;9.53;;;7.57;;
2750;SDS011;1383;48.362;10.908;2022-07-23T00:50:01;8.10;;;7.43;;
2750;SDS011;1383;48.362;10.908;2022-07-23T00:52:29;7.73;;;7.03;;
2750;SDS011;1383;48.362;10.908;2022-07-23T00:54:57;8.27;;;7.10;;
2750;SDS011;1383;48.362;10.908;2022-07-23T00:57:24;7.80;;;7.23;;
2750;SDS011;1383;48.362;10.908;2022-07-23T00:59:54;7.53;;;6.93;;
2750;SDS011;1383;48.362;10.908;2022-07-23T01:02:21;7.83;;;7.23;;
2750;SDS011;1383;48.362;10.908;2022-07-23T01:04:48;8.03;;;7.23;;
2750;SDS011;1383;48.362;10.908;2022-07-23T01:07:15;7.87;;;7.17;;
2750;SDS011;1383;48.362;10.908;2022-07-23T01:09:42;8.57;;;7.77;;
2750;SDS011;1383;48.362;10.908;2022-07-23T01:12:10;10.13;;;9.27;;
2750;SDS011;1383;48.362;10.908;2022-07-23T01:14:37;9.30;;;8.50;;
2750;SDS011;1383;48.362;10.908;2022-07-23T01:17:04;9.90;;;8.90;;
2750;SDS011;1383;48.362;10.908;2022-07-23T01:19:31;13.03;;;9.60;;
2750;SDS011;1383;48.362;10.908;2022-07-23T01:21:58;10.73;;;9.73;;
2750;SDS011;1383;48.362;10.908;2022-07-23T01:24:28;10.70;;;9.70;;
2750;SDS011;1383;48.362;10.908;2022-07-23T01:26:55;15.40;;;10.90;;
2750;SDS011;1383;48.362;10.908;2022-07-23T01:29:22;11.37;;;10.27;;
2750;SDS011;1383;48.362;10.908;2022-07-23T01:31:49;11.57;;;10.40;;
2750;SDS011;1383;48.362;10.908;2022-07-23T01:34:16;13.47;;;11.47;;
2750;SDS011;1383;48.362;10.908;2022-07-23T01:36:43;12.40;;;11.17;;
2750;SDS011;1383;48.362;10.908;2022-07-23T01:39:10;11.97;;;10.67;;
2750;SDS011;1383;48.362;10.908;2022-07-23T01:41:36;11.63;;;10.43;;
2750;SDS011;1383;48.362;10.908;2022-07-23T01:44:05;11.57;;;10.50;;
2750;SDS011;1383;48.362;10.908;2022-07-23T01:46:31;14.60;;;12.20;;
2750;SDS011;1383;48.362;10.908;2022-07-23T01:48:58;12.33;;;10.90;;
2750;SDS011;1383;48.362;10.908;2022-07-23T01:51:26;11.93;;;10.23;;
2750;SDS011;1383;48.362;10.908;2022-07-23T01:53:53;13.43;;;12.03;;
2750;SDS011;1383;48.362;10.908;2022-07-23T01:56:19;13.47;;;10.67;;
2750;SDS011;1383;48.362;10.908;2022-07-23T01:58:47;13.70;;;11.80;;
2750;SDS011;1383;48.362;10.908;2022-07-23T02:01:15;13.03;;;11.73;;
2750;SDS011;1383;48.362;10.908;2022-07-23T02:03:42;14.30;;;11.33;;
2750;SDS011;1383;48.362;10.908;2022-07-23T02:06:08;13.70;;;12.40;;
2750;SDS011;1383;48.362;10.908;2022-07-23T02:08:35;13.90;;;11.23;;
2750;SDS011;1383;48.362;10.908;2022-07-23T02:11:02;14.10;;;12.10;;
2750;SDS011;1383;48.362;10.908;2022-07-23T02:13:29;13.07;;;11.77;;
2750;SDS011;1383;48.362;10.908;2022-07-23T02:15:59;12.20;;;11.00;;
2750;SDS011;1383;48.362;10.908;2022-07-23T02:18:26;11.20;;;10.10;;
2750;SDS011;1383;48.362;10.908;2022-07-23T02:20:53;13.13;;;11.23;;
2750;SDS011;1383;48.362;10.908;2022-07-23T02:23:20;12.20;;;11.03;;
2750;SDS011;1383;48.362;10.908;2022-07-23T02:25:47;12.90;;;11.23;;
2750;SDS011;1383;48.362;10.908;2022-07-23T02:28:14;12.60;;;10.40;;
2750;SDS011;1383;48.362;10.908;2022-07-23T02:30:41;14.37;;;10.67;;
2750;SDS011;1383;48.362;10.908;2022-07-23T02:33:08;12.90;;;11.03;;
2750;SDS011;1383;48.362;10.908;2022-07-23T02:35:35;12.77;;;11.60;;
2750;SDS011;1383;48.362;10.908;2022-07-23T02:38:02;12.23;;;11.13;;
2750;SDS011;1383;48.362;10.908;2022-07-23T02:40:28;12.00;;;10.80;;
2750;SDS011;1383;48.362;10.908;2022-07-23T02:42:55;12.97;;;11.60;;
2750;SDS011;1383;48.362;10.908;2022-07-23T02:45:22;15.03;;;11.83;;
2750;SDS011;1383;48.362;10.908;2022-07-23T02:47:49;11.60;;;10.60;;
2750;SDS011;1383;48.362;10.908;2022-07-23T02:50:16;12.97;;;11.77;;
2750;SDS011;1383;48.362;10.908;2022-07-23T02:52:43;13.23;;;12.13;;
2750;SDS011;1383;48.362;10.908;2022-07-23T02:55:09;15.37;;;11.53;;
2750;SDS011;1383;48.362;10.908;2022-07-23T02:57:37;11.70;;;10.70;;
2750;SDS011;1383;48.362;10.908;2022-07-23T03:00:04;12.40;;;11.20;;
2750;SDS011;1383;48.362;10.908;2022-07-23T03:02:32;13.33;;;11.73;;
2750;SDS011;1383;48.362;10.908;2022-07-23T03:04:59;12.13;;;10.87;;
2750;SDS011;1383;48.362;10.908;2022-07-23T03:07:25;12.43;;;11.33;;
2750;SDS011;1383;48.362;10.908;2022-07-23T03:09:52;10.80;;;9.70;;
2750;SDS011;1383;48.362;10.908;2022-07-23T03:12:19;12.10;;;10.90;;
2750;SDS011;1383;48.362;10.908;2022-07-23T03:14:46;13.40;;;11.97;;
2750;SDS011;1383;48.362;10.908;2022-07-23T03:17:12;12.87;;;11.67;;
2750;SDS011;1383;48.362;10.908;2022-07-23T03:19:39;12.50;;;10.90;;
2750;SDS011;1383;48.362;10.908;2022-07-23T03:22:06;12.40;;;10.60;;
2750;SDS011;1383;48.362;10.908;2022-07-23T03:24:33;11.40;;;10.40;;
2750;SDS011;1383;48.362;10.908;2022-07-23T03:27:19;11.93;;;10.83;;
2750;SDS011;1383;48.362;10.908;2022-07-23T03:29:50;10.93;;;9.93;;
2750;SDS011;1383;48.362;10.908;2022-07-23T03:32:18;13.50;;;10.57;;
2750;SDS011;1383;48.362;10.908;2022-07-23T03:34:45;10.13;;;9.23;;
2750;SDS011;1383;48.362;10.908;2022-07-23T03:37:12;11.10;;;10.00;;
2750;SDS011;1383;48.362;10.908;2022-07-23T03:39:39;23.40;;;10.00;;
2750;SDS011;1383;48.362;10.908;2022-07-23T03:42:06;11.20;;;9.70;;
2750;SDS011;1383;48.362;10.908;2022-07-23T03:44:33;11.03;;;9.97;;
2750;SDS011;1383;48.362;10.908;2022-07-23T03:47:03;9.93;;;9.10;;
2750;SDS011;1383;48.362;10.908;2022-07-23T03:49:30;9.90;;;8.90;;
2750;SDS011;1383;48.362;10.908;2022-07-23T03:51:57;10.03;;;9.03;;
2750;SDS011;1383;48.362;10.908;2022-07-23T03:54:24;9.43;;;8.53;;
2750;SDS011;1383;48.362;10.908;2022-07-23T03:56:51;8.60;;;7.80;;
2750;SDS011;1383;48.362;10.908;2022-07-23T03:59:18;10.90;;;8.83;;
2750;SDS011;1383;48.362;10.908;2022-07-23T04:01:49;9.10;;;8.30;;
2750;SDS011;1383;48.362;10.908;2022-07-23T04:04:16;9.60;;;8.70;;
2750;SDS011;1383;48.362;10.908;2022-07-23T04:06:43;10.07;;;7.93;;
2750;SDS011;1383;48.362;10.908;2022-07-23T04:09:10;8.77;;;7.97;;
2750;SDS011;1383;48.362;10.908;2022-07-23T04:11:37;9.23;;;8.33;;
2750;SDS011;1383;48.362;10.908;2022-07-23T04:14:04;8.90;;;8.10;;
2750;SDS011;1383;48.362;10.908;2022-07-23T04:16:31;8.87;;;8.07;;
2750;SDS011;1383;48.362;10.908;2022-07-23T04:18:57;7.73;;;7.03;;
2750;SDS011;1383;48.362;10.908;2022-07-23T04:21:25;8.03;;;7.33;;
2750;SDS011;1383;48.362;10.908;2022-07-23T04:23:52;8.90;;;8.10;;
2750;SDS011;1383;48.362;10.908;2022-07-23T04:26:19;8.97;;;8.20;;
2750;SDS011;1383;48.362;10.908;2022-07-23T04:28:45;9.83;;;8.73;;
2750;SDS011;1383;48.362;10.908;2022-07-23T04:31:12;9.00;;;8.20;;
2750;SDS011;1383;48.362;10.908;2022-07-23T04:33:39;11.93;;;8.00;;
2750;SDS011;1383;48.362;10.908;2022-07-23T04:36:06;8.53;;;7.60;;
2750;SDS011;1383;48.362;10.908;2022-07-23T04:38:33;8.10;;;7.30;;
2750;SDS011;1383;48.362;10.908;2022-07-23T04:41:00;8.23;;;7.53;;
2750;SDS011;1383;48.362;10.908;2022-07-23T04:43:27;7.83;;;7.20;;
2750;SDS011;1383;48.362;10.908;2022-07-23T04:45:54;8.93;;;6.57;;
2750;SDS011;1383;48.362;10.908;2022-07-23T04:48:21;9.00;;;7.10;;
2750;SDS011;1383;48.362;10.908;2022-07-23T04:50:47;9.73;;;7.70;;
2750;SDS011;1383;48.362;10.908;2022-07-23T04:53:14;9.73;;;7.20;;
2750;SDS011;1383;48.362;10.908;2022-07-23T04:55:41;8.27;;;7.50;;
2750;SDS011;1383;48.362;10.908;2022-07-23T04:58:08;8.23;;;7.53;;
2750;SDS011;1383;48.362;10.908;2022-07-23T05:00:35;7.00;;;6.30;;
2750;SDS011;1383;48.362;10.908;2022-07-23T05:03:02;8.03;;;7.23;;
2750;SDS011;1383;48.362;10.908;2022-07-23T05:05:28;7.40;;;6.70;;
2750;SDS011;1383;48.362;10.908;2022-07-23T05:07:55;6.60;;;6.00;;
2750;SDS011;1383;48.362;10.908;2022-07-23T05:10:22;7.63;;;6.87;;
2750;SDS011;1383;48.362;10.908;2022-07-23T05:12:52;7.97;;;7.23;;
2750;SDS011;1383;48.362;10.908;2022-07-23T05:15:19;6.83;;;6.13;;
2750;SDS011;1383;48.362;10.908;2022-07-23T05:17:46;8.03;;;7.23;;
2750;SDS011;1383;48.362;10.908;2022-07-23T05:20:13;10.70;;;8.57;;
2750;SDS011;1383;48.362;10.908;2022-07-23T05:22:40;14.30;;;12.80;;
2750;SDS011;1383;48.362;10.908;2022-07-23T05:25:07;8.57;;;7.80;;
2750;SDS011;1383;48.362;10.908;2022-07-23T05:27:34;9.10;;;8.30;;
2750;SDS011;1383;48.362;10.908;2022-07-23T05:30:01;8.10;;;7.40;;
2750;SDS011;1383;48.362;10.908;2022-07-23T05:32:30;9.03;;;8.00;;
2750;SDS011;1383;48.362;10.908;2022-07-23T05:34:58;11.27;;;7.77;;
2750;SDS011;1383;48.362;10.908;2022-07-23T05:37:25;7.23;;;6.20;;
2750;SDS011;1383;48.362;10.908;2022-07-23T05:39:52;8.53;;;7.00;;
2750;SDS011;1383;48.362;10.908;2022-07-23T05:42:18;7.70;;;7.00;;
2750;SDS011;1383;48.362;10.908;2022-07-23T05:44:45;7.40;;;6.70;;
2750;SDS011;1383;48.362;10.908;2022-07-23T05:47:12;8.30;;;7.17;;
2750;SDS011;1383;48.362;10.908;2022-07-23T05:49:39;7.80;;;7.10;;
2750;SDS011;1383;48.362;10.908;2022-07-23T05:52:06;8.20;;;7.50;;
2750;SDS011;1383;48.362;10.908;2022-07-23T05:54:34;9.70;;;8.10;;
2750;SDS011;1383;48.362;10.908;2022-07-23T05:57:02;7.60;;;7.00;;
2750;SDS011;1383;48.362;10.908;2022-07-23T05:59:29;7.83;;;6.70;;
2750;SDS011;1383;48.362;10.908;2022-07-23T06:01:56;8.17;;;7.27;;
2750;SDS011;1383;48.362;10.908;2022-07-23T06:04:23;15.90;;;8.50;;
2750;SDS011;1383;48.362;10.908;2022-07-23T06:06:50;9.03;;;6.87;;
2750;SDS011;1383;48.362;10.908;2022-07-23T06:09:17;8.93;;;8.03;;
2750;SDS011;1383;48.362;10.908;2022-07-23T06:11:44;8.50;;;7.80;;
2750;SDS011;1383;48.362;10.908;2022-07-23T06:14:11;9.13;;;7.73;;
2750;SDS011;1383;48.362;10.908;2022-07-23T06:16:37;9.53;;;8.63;;
2750;SDS011;1383;48.362;10.908;2022-07-23T06:19:04;8.90;;;8.00;;
2750;SDS011;1383;48.362;10.908;2022-07-23T06:21:31;12.77;;;9.27;;
2750;SDS011;1383;48.362;10.908;2022-07-23T06:24:12;11.40;;;8.33;;
2750;SDS011;1383;48.362;10.908;2022-07-23T06:26:39;8.50;;;7.80;;
2750;SDS011;1383;48.362;10.908;2022-07-23T06:29:06;9.00;;;8.20;;
2750;SDS011;1383;48.362;10.908;2022-07-23T06:31:33;10.50;;;8.40;;
2750;SDS011;1383;48.362;10.908;2022-07-23T06:34:00;9.63;;;8.83;;
2750;SDS011;1383;48.362;10.908;2022-07-23T06:36:27;10.40;;;9.40;;
2750;SDS011;1383;48.362;10.908;2022-07-23T06:38:54;10.77;;;9.77;;
2750;SDS011;1383;48.362;10.908;2022-07-23T06:41:21;10.07;;;9.07;;
2750;SDS011;1383;48.362;10.908;2022-07-23T06:43:49;8.70;;;7.63;;
2750;SDS011;1383;48.362;10.908;2022-07-23T06:46:16;9.53;;;8.73;;
2750;SDS011;1383;48.362;10.908;2022-07-23T06:48:43;10.13;;;9.00;;
2750;SDS011;1383;48.362;10.908;2022-07-23T06:51:10;12.43;;;9.53;;
2750;SDS011;1383;48.362;10.908;2022-07-23T06:53:36;9.83;;;8.83;;
2750;SDS011;1383;48.362;10.908;2022-07-23T06:56:03;11.00;;;9.93;;
2750;SDS011;1383;48.362;10.908;2022-07-23T06:58:30;10.47;;;9.67;;
2750;SDS011;1383;48.362;10.908;2022-07-23T07:00:57;11.50;;;9.40;;
2750;SDS011;1383;48.362;10.908;2022-07-23T07:03:24;11.67;;;9.97;;
2750;SDS011;1383;48.362;10.908;2022-07-23T07:05:50;10.30;;;9.40;;
2750;SDS011;1383;48.362;10.908;2022-07-23T07:08:18;10.33;;;9.33;;
2750;SDS011;1383;48.362;10.908;2022-07-23T07:10:45;12.10;;;9.30;;
2750;SDS011;1383;48.362;10.908;2022-07-23T07:13:12;11.10;;;10.00;;
2750;SDS011;1383;48.362;10.908;2022-07-23T07:15:39;12.70;;;10.67;;
2750;SDS011;1383;48.362;10.908;2022-07-23T07:18:06;10.63;;;9.73;;
2750;SDS011;1383;48.362;10.908;2022-07-23T07:20:33;10.43;;;9.53;;
2750;SDS011;1383;48.362;10.908;2022-07-23T07:22:59;10.93;;;9.97;;
2750;SDS011;1383;48.362;10.908;2022-07-23T07:25:26;10.53;;;9.63;;
2750;SDS011;1383;48.362;10.908;2022-07-23T07:27:53;10.20;;;9.23;;
2750;SDS011;1383;48.362;10.908;2022-07-23T07:30:20;12.10;;;10.80;;
2750;SDS011;1383;48.362;10.908;2022-07-23T07:32:47;10.23;;;9.33;;
2750;SDS011;1383;48.362;10.908;2022-07-23T07:35:23;9.87;;;9.00;;
2750;SDS011;1383;48.362;10.908;2022-07-23T07:37:51;10.23;;;9.03;;
2750;SDS011;1383;48.362;10.908;2022-07-23T07:40:18;10.07;;;9.17;;
2750;SDS011;1383;48.362;10.908;2022-07-23T07:42:48;10.57;;;9.67;;
2750;SDS011;1383;48.362;10.908;2022-07-23T07:45:19;11.93;;;9.93;;
2750;SDS011;1383;48.362;10.908;2022-07-23T07:47:46;8.60;;;7.80;;
2750;SDS011;1383;48.362;10.908;2022-07-23T07:50:14;9.80;;;8.90;;
2750;SDS011;1383;48.362;10.908;2022-07-23T07:52:41;12.13;;;8.97;;
2750;SDS011;1383;48.362;10.908;2022-07-23T07:55:09;10.27;;;9.37;;
2750;SDS011;1383;48.362;10.908;2022-07-23T07:57:36;8.70;;;8.00;;
2750;SDS011;1383;48.362;10.908;2022-07-23T08:00:04;10.20;;;9.20;;
2750;SDS011;1383;48.362;10.908;2022-07-23T08:02:40;10.77;;;9.70;;
2750;SDS011;1383;48.362;10.908;2022-07-23T08:05:12;11.37;;;8.97;;
2750;SDS011;1383;48.362;10.908;2022-07-23T08:07:39;9.00;;;8.20;;
2750;SDS011;1383;48.362;10.908;2022-07-23T08:10:07;9.43;;;8.63;;
2750;SDS011;1383;48.362;10.908;2022-07-23T08:12:43;10.63;;;9.00;;
2750;SDS011;1383;48.362;10.908;2022-07-23T08:15:16;8.97;;;8.07;;
2750;SDS011;1383;48.362;10.908;2022-07-23T08:17:44;9.43;;;8.53;;
2750;SDS011;1383;48.362;10.908;2022-07-23T08:20:13;10.17;;;9.37;;
2750;SDS011;1383;48.362;10.908;2022-07-23T08:22:42;9.40;;;8.60;;
2750;SDS011;1383;48.362;10.908;2022-07-23T08:27:53;10.00;;;9.10;;
2750;SDS011;1383;48.362;10.908;2022-07-23T08:30:21;9.40;;;8.60;;
2750;SDS011;1383;48.362;10.908;2022-07-23T08:32:52;10.00;;;8.90;;
2750;SDS011;1383;48.362;10.908;2022-07-23T08:35:25;10.10;;;9.30;;
2750;SDS011;1383;48.362;10.908;2022-07-23T08:37:54;9.40;;;8.60;;
2750;SDS011;1383;48.362;10.908;2022-07-23T08:40:21;10.50;;;9.47;;
2750;SDS011;1383;48.362;10.908;2022-07-23T08:42:50;7.53;;;6.93;;
2750;SDS011;1383;48.362;10.908;2022-07-23T08:45:18;8.50;;;7.77;;
2750;SDS011;1383;48.362;10.908;2022-07-23T08:47:54;8.40;;;7.70;;
2750;SDS011;1383;48.362;10.908;2022-07-23T08:50:23;7.90;;;7.20;;
2750;SDS011;1383;48.362;10.908;2022-07-23T08:52:50;8.93;;;8.20;;
2750;SDS011;1383;48.362;10.908;2022-07-23T08:55:19;8.57;;;7.87;;
2750;SDS011;1383;48.362;10.908;2022-07-23T08:57:47;7.63;;;6.90;;
2750;SDS011;1383;48.362;10.908;2022-07-23T09:00:16;8.00;;;7.20;;
2750;SDS011;1383;48.362;10.908;2022-07-23T09:02:44;10.93;;;8.43;;
2750;SDS011;1383;48.362;10.908;2022-07-23T09:05:12;7.33;;;6.67;;
2750;SDS011;1383;48.362;10.908;2022-07-23T09:13:30;6.67;;;6.07;;
2750;SDS011;1383;48.362;10.908;2022-07-23T09:18:38;8.20;;;7.60;;
2750;SDS011;1383;48.362;10.908;2022-07-23T09:21:12;9.07;;;8.27;;
2750;SDS011;1383;48.362;10.908;2022-07-23T09:23:59;8.67;;;7.90;;
2750;SDS011;1383;48.362;10.908;2022-07-23T09:26:37;7.63;;;7.03;;
2750;SDS011;1383;48.362;10.908;2022-07-23T09:29:10;8.67;;;7.40;;
2750;SDS011;1383;48.362;10.908;2022-07-23T09:34:39;7.80;;;6.77;;
2750;SDS011;1383;48.362;10.908;2022-07-23T09:37:09;7.30;;;6.80;;
2750;SDS011;1383;48.362;10.908;2022-07-23T09:39:36;7.07;;;6.53;;
2750;SDS011;1383;48.362;10.908;2022-07-23T09:42:22;6.97;;;6.47;;
2750;SDS011;1383;48.362;10.908;2022-07-23T09:44:51;7.80;;;7.20;;
2750;SDS011;1383;48.362;10.908;2022-07-23T09:47:23;6.80;;;6.30;;
2750;SDS011;1383;48.362;10.908;2022-07-23T09:50:02;8.40;;;7.70;;
2750;SDS011;1383;48.362;10.908;2022-07-23T09:52:42;7.90;;;7.27;;
2750;SDS011;1383;48.362;10.908;2022-07-23T09:55:10;11.20;;;10.23;;
2750;SDS011;1383;48.362;10.908;2022-07-23T09:57:38;8.57;;;7.77;;
2750;SDS011;1383;48.362;10.908;2022-07-23T10:00:08;8.50;;;7.70;;
2750;SDS011;1383;48.362;10.908;2022-07-23T10:02:37;8.30;;;7.60;;
2750;SDS011;1383;48.362;10.908;2022-07-23T10:05:06;8.33;;;7.50;;
2750;SDS011;1383;48.362;10.908;2022-07-23T10:07:35;7.80;;;7.20;;
2750;SDS011;1383;48.362;10.908;2022-07-23T10:10:04;8.00;;;7.40;;
2750;SDS011;1383;48.362;10.908;2022-07-23T10:12:32;7.50;;;7.00;;
2750;SDS011;1383;48.362;10.908;2022-07-23T10:15:17;7.70;;;7.10;;
2750;SDS011;1383;48.362;10.908;2022-07-23T10:17:44;7.80;;;7.20;;
2750;SDS011;1383;48.362;10.908;2022-07-23T10:20:11;8.43;;;7.60;;
2750;SDS011;1383;48.362;10.908;2022-07-23T10:22:40;13.90;;;12.50;;
2750;SDS011;1383;48.362;10.908;2022-07-23T10:25:41;8.00;;;7.40;;
2750;SDS011;1383;48.362;10.908;2022-07-23T10:28:25;7.77;;;7.07;;
2750;SDS011;1383;48.362;10.908;2022-07-23T10:34:19;7.70;;;6.97;;
2750;SDS011;1383;48.362;10.908;2022-07-23T10:36:56;7.40;;;6.80;;
2750;SDS011;1383;48.362;10.908;2022-07-23T10:39:26;7.70;;;7.00;;
2750;SDS011;1383;48.362;10.908;2022-07-23T10:42:12;11.40;;;7.87;;
2750;SDS011;1383;48.362;10.908;2022-07-23T10:44:42;8.03;;;7.43;;
2750;SDS011;1383;48.362;10.908;2022-07-23T10:47:10;10.43;;;7.47;;
2750;SDS011;1383;48.362;10.908;2022-07-23T10:55:39;7.83;;;7.13;;
2750;SDS011;1383;48.362;10.908;2022-07-23T10:58:07;7.30;;;6.80;;
2750;SDS011;1383;48.362;10.908;2022-07-23T11:00:35;7.43;;;6.83;;
2750;SDS011;1383;48.362;10.908;2022-07-23T11:03:03;7.73;;;7.13;;
2750;SDS011;1383;48.362;10.908;2022-07-23T11:05:50;7.97;;;7.30;;
2750;SDS011;1383;48.362;10.908;2022-07-23T11:08:18;8.27;;;7.70;;
2750;SDS011;1383;48.362;10.908;2022-07-23T11:10:49;8.37;;;7.77;;
2750;SDS011;1383;48.362;10.908;2022-07-23T11:16:03;7.53;;;6.93;;
2750;SDS011;1383;48.362;10.908;2022-07-23T11:34:54;9.43;;;8.50;;
2750;SDS011;1383;48.362;10.908;2022-07-23T11:37:28;8.90;;;8.20;;
2750;SDS011;1383;48.362;10.908;2022-07-23T11:40:00;8.77;;;8.07;;
2750;SDS011;1383;48.362;10.908;2022-07-23T11:42:31;8.37;;;7.77;;
2750;SDS011;1383;48.362;10.908;2022-07-23T11:44:58;8.97;;;8.27;;
2750;SDS011;1383;48.362;10.908;2022-07-23T11:47:25;8.13;;;7.43;;
2750;SDS011;1383;48.362;10.908;2022-07-23T11:52:24;8.93;;;8.33;;
2750;SDS011;1383;48.362;10.908;2022-07-23T11:54:52;9.43;;;8.73;;
2750;SDS011;1383;48.362;10.908;2022-07-23T11:57:25;8.60;;;7.90;;
2750;SDS011;1383;48.362;10.908;2022-07-23T12:00:00;11.13;;;10.00;;
2750;SDS011;1383;48.362;10.908;2022-07-23T12:02:32;10.00;;;9.00;;
2750;SDS011;1383;48.362;10.908;2022-07-23T12:04:58;8.80;;;8.00;;
2750;SDS011;1383;48.362;10.908;2022-07-23T12:10:04;10.50;;;9.60;;
2750;SDS011;1383;48.362;10.908;2022-07-23T12:12:47;10.97;;;9.60;;
2750;SDS011;1383;48.362;10.908;2022-07-23T12:15:16;9.20;;;8.40;;
2750;SDS011;1383;48.362;10.908;2022-07-23T12:18:07;9.83;;;9.10;;
2750;SDS011;1383;48.362;10.908;2022-07-23T12:20:46;10.30;;;9.60;;
2750;SDS011;1383;48.362;10.908;2022-07-23T12:23:16;9.50;;;8.70;;
2750;SDS011;1383;48.362;10.908;2022-07-23T12:25:46;10.43;;;9.63;;
2750;SDS011;1383;48.362;10.908;2022-07-23T12:28:15;9.93;;;9.13;;
2750;SDS011;1383;48.362;10.908;2022-07-23T12:30:46;9.97;;;9.10;;
2750;SDS011;1383;48.362;10.908;2022-07-23T12:33:31;9.97;;;8.87;;
2750;SDS011;1383;48.362;10.908;2022-07-23T12:35:58;9.83;;;8.90;;
2750;SDS011;1383;48.362;10.908;2022-07-23T12:38:28;11.40;;;10.60;;
2750;SDS011;1383;48.362;10.908;2022-07-23T12:41:02;10.63;;;9.73;;
2750;SDS011;1383;48.362;10.908;2022-07-23T12:43:37;9.07;;;8.37;;
2750;SDS011;1383;48.362;10.908;2022-07-23T12:46:13;9.97;;;9.20;;
2750;SDS011;1383;48.362;10.908;2022-07-23T12:53:52;11.30;;;10.20;;
2750;SDS011;1383;48.362;10.908;2022-07-23T12:56:35;10.40;;;9.50;;
2750;SDS011;1383;48.362;10.908;2022-07-23T13:01:36;9.50;;;8.80;;
2750;SDS011;1383;48.362;10.908;2022-07-23T13:04:08;10.37;;;9.57;;
2750;SDS011;1383;48.362;10.908;2022-07-23T13:06:49;10.10;;;9.40;;
2750;SDS011;1383;48.362;10.908;2022-07-23T13:09:19;11.20;;;10.10;;
2750;SDS011;1383;48.362;10.908;2022-07-23T13:11:48;11.57;;;10.57;;
2750;SDS011;1383;48.362;10.908;2022-07-23T13:14:16;10.00;;;9.00;;
2750;SDS011;1383;48.362;10.908;2022-07-23T13:16:47;14.10;;;12.93;;
2750;SDS011;1383;48.362;10.908;2022-07-23T13:19:16;12.10;;;11.10;;
2750;SDS011;1383;48.362;10.908;2022-07-23T13:21:44;9.70;;;9.00;;
2750;SDS011;1383;48.362;10.908;2022-07-23T13:24:12;10.03;;;9.13;;
2750;SDS011;1383;48.362;10.908;2022-07-23T13:26:39;10.53;;;9.63;;
2750;SDS011;1383;48.362;10.908;2022-07-23T13:29:06;11.90;;;11.10;;
2750;SDS011;1383;48.362;10.908;2022-07-23T13:31:35;11.13;;;10.23;;
2750;SDS011;1383;48.362;10.908;2022-07-23T13:34:23;11.20;;;10.30;;
2750;SDS011;1383;48.362;10.908;2022-07-23T13:36:50;10.77;;;9.83;;
2750;SDS011;1383;48.362;10.908;2022-07-23T13:39:17;11.00;;;9.97;;
2750;SDS011;1383;48.362;10.908;2022-07-23T13:41:43;10.53;;;9.63;;
2750;SDS011;1383;48.362;10.908;2022-07-23T13:44:16;11.13;;;10.23;;
2750;SDS011;1383;48.362;10.908;2022-07-23T13:46:43;10.40;;;9.50;;
2750;SDS011;1383;48.362;10.908;2022-07-23T13:49:13;10.63;;;9.83;;
2750;SDS011;1383;48.362;10.908;2022-07-23T13:51:40;10.73;;;9.87;;
2750;SDS011;1383;48.362;10.908;2022-07-23T13:54:07;11.03;;;10.23;;
2750;SDS011;1383;48.362;10.908;2022-07-23T13:56:34;11.73;;;10.47;;
2750;SDS011;1383;48.362;10.908;2022-07-23T13:59:02;10.20;;;9.40;;
2750;SDS011;1383;48.362;10.908;2022-07-23T14:01:32;10.17;;;9.37;;
2750;SDS011;1383;48.362;10.908;2022-07-23T14:04:15;10.63;;;9.83;;
2750;SDS011;1383;48.362;10.908;2022-07-23T14:06:43;12.03;;;11.03;;
2750;SDS011;1383;48.362;10.908;2022-07-23T14:09:17;10.03;;;9.20;;
2750;SDS011;1383;48.362;10.908;2022-07-23T14:11:44;11.40;;;10.40;;
2750;SDS011;1383;48.362;10.908;2022-07-23T14:14:11;9.93;;;9.13;;
2750;SDS011;1383;48.362;10.908;2022-07-23T14:16:40;11.00;;;10.10;;
2750;SDS011;1383;48.362;10.908;2022-07-23T14:19:07;12.03;;;11.03;;
2750;SDS011;1383;48.362;10.908;2022-07-23T14:21:34;10.33;;;9.53;;
2750;SDS011;1383;48.362;10.908;2022-07-23T14:24:01;11.57;;;10.40;;
2750;SDS011;1383;48.362;10.908;2022-07-23T14:26:28;10.33;;;9.43;;
2750;SDS011;1383;48.362;10.908;2022-07-23T14:28:55;10.47;;;9.43;;
2750;SDS011;1383;48.362;10.908;2022-07-23T14:31:23;10.97;;;9.97;;
2750;SDS011;1383;48.362;10.908;2022-07-23T14:33:51;11.17;;;10.27;;
2750;SDS011;1383;48.362;10.908;2022-07-23T14:36:19;9.67;;;8.97;;
2750;SDS011;1383;48.362;10.908;2022-07-23T14:38:46;11.17;;;10.17;;
2750;SDS011;1383;48.362;10.908;2022-07-23T14:41:13;10.97;;;10.07;;
2750;SDS011;1383;48.362;10.908;2022-07-23T14:43:41;9.57;;;8.73;;
2750;SDS011;1383;48.362;10.908;2022-07-23T14:46:10;8.20;;;7.60;;
2750;SDS011;1383;48.362;10.908;2022-07-23T14:48:39;8.77;;;8.07;;
2750;SDS011;1383;48.362;10.908;2022-07-23T14:51:06;9.83;;;8.93;;
2750;SDS011;1383;48.362;10.908;2022-07-23T14:53:34;8.67;;;7.77;;
2750;SDS011;1383;48.362;10.908;2022-07-23T14:56:00;8.17;;;7.50;;
2750;SDS011;1383;48.362;10.908;2022-07-23T14:58:28;7.90;;;7.20;;
2750;SDS011;1383;48.362;10.908;2022-07-23T15:00:55;8.63;;;7.93;;
2750;SDS011;1383;48.362;10.908;2022-07-23T15:03:23;9.27;;;8.60;;
2750;SDS011;1383;48.362;10.908;2022-07-23T15:06:05;8.73;;;8.03;;
2750;SDS011;1383;48.362;10.908;2022-07-23T15:08:32;8.90;;;8.20;;
2750;SDS011;1383;48.362;10.908;2022-07-23T15:10:59;8.53;;;7.93;;
2750;SDS011;1383;48.362;10.908;2022-07-23T15:13:26;9.83;;;8.90;;
2750;SDS011;1383;48.362;10.908;2022-07-23T15:15:53;9.17;;;8.47;;
2750;SDS011;1383;48.362;10.908;2022-07-23T15:18:22;9.90;;;9.20;;
2750;SDS011;1383;48.362;10.908;2022-07-23T15:20:49;9.07;;;8.27;;
2750;SDS011;1383;48.362;10.908;2022-07-23T15:23:15;8.93;;;8.23;;
2750;SDS011;1383;48.362;10.908;2022-07-23T15:25:42;9.90;;;9.00;;
2750;SDS011;1383;48.362;10.908;2022-07-23T15:28:15;9.67;;;8.97;;
2750;SDS011;1383;48.362;10.908;2022-07-23T15:30:46;9.60;;;8.80;;
2750;SDS011;1383;48.362;10.908;2022-07-23T15:33:15;9.43;;;8.73;;
2750;SDS011;1383;48.362;10.908;2022-07-23T15:35:47;10.27;;;9.40;;
2750;SDS011;1383;48.362;10.908;2022-07-23T15:38:15;9.73;;;8.93;;
2750;SDS011;1383;48.362;10.908;2022-07-23T15:40:51;9.20;;;8.47;;
2750;SDS011;1383;48.362;10.908;2022-07-23T15:43:24;9.53;;;8.73;;
2750;SDS011;1383;48.362;10.908;2022-07-23T15:45:51;10.20;;;9.23;;
2750;SDS011;1383;48.362;10.908;2022-07-23T15:48:19;10.20;;;9.40;;
2750;SDS011;1383;48.362;10.908;2022-07-23T15:50:46;10.40;;;9.60;;
2750;SDS011;1383;48.362;10.908;2022-07-23T15:53:13;9.57;;;8.80;;
2750;SDS011;1383;48.362;10.908;2022-07-23T15:55:41;9.87;;;9.17;;